Time;durP1;ratioP1;P1;durP2;ratioP2;P2;SDS_P1;SDS_P2;PMS_P1;PMS_P2;Temp;Humidity;BMP_temperature;BMP_pressure;BME280_temperature;BME280_humidity;BME280_pressure;Samples;Min_cycle;Max_cycle;Signal;HPM_P1;HPM_P2
2022/01/05 00:00:36;;;;;;;1.93;1.73;;;6.90;99.90;;;;;;5073136;28;20461;-63
2022/01/05 00:03:04;;;;;;;2.00;1.90;;;6.80;99.90;;;;;;5072981;28;20448;-63
2022/01/05 00:05:31;;;;;;;1.90;1.80;;;6.90;99.90;;;;;;5072929;28;20509;-63
2022/01/05 00:08:00;;;;;;;2.07;1.97;;;6.80;99.90;;;;;;5073139;28;20439;-63
2022/01/05 00:10:27;;;;;;;1.70;1.60;;;6.90;99.90;;;;;;5072903;28;20468;-63
2022/01/05 00:12:54;;;;;;;1.50;1.40;;;7.00;99.90;;;;;;5073143;28;20658;-62
2022/01/05 00:15:27;;;;;;;2.33;2.20;;;6.80;99.90;;;;;;5072903;28;20480;-63
2022/01/05 00:17:54;;;;;;;2.63;1.80;;;6.90;99.90;;;;;;5073257;28;20452;-64
2022/01/05 00:20:21;;;;;;;1.40;1.30;;;6.90;99.90;;;;;;5073086;28;20478;-64
2022/01/05 00:22:48;;;;;;;1.50;1.40;;;6.80;99.90;;;;;;5077151;28;20442;-64
2022/01/05 00:25:17;;;;;;;1.40;1.30;;;6.80;99.90;;;;;;5077341;28;20840;-63
2022/01/05 00:27:44;;;;;;;1.63;1.40;;;6.60;99.90;;;;;;5076861;28;20538;-63
2022/01/05 00:30:12;;;;;;;1.40;1.30;;;6.60;99.90;;;;;;5076730;28;20468;-63
2022/01/05 00:32:39;;;;;;;1.43;1.33;;;6.70;99.90;;;;;;5077124;28;20555;-62
2022/01/05 00:35:07;;;;;;;1.40;1.30;;;6.70;99.90;;;;;;5077037;28;20813;-63
2022/01/05 00:37:34;;;;;;;1.30;1.20;;;6.60;99.90;;;;;;5076595;28;20463;-62
2022/01/05 00:40:01;;;;;;;1.40;1.30;;;6.60;99.90;;;;;;5076730;28;20424;-62
2022/01/05 00:42:30;;;;;;;2.27;1.50;;;6.60;99.90;;;;;;5076884;28;20483;-62
2022/01/05 00:44:57;;;;;;;1.30;1.20;;;6.50;99.90;;;;;;5076498;28;20467;-62
2022/01/05 00:47:24;;;;;;;1.37;1.27;;;6.60;99.90;;;;;;5076875;28;20448;-62
2022/01/05 00:49:52;;;;;;;1.60;1.30;;;6.60;99.90;;;;;;5076290;28;20463;-62
2022/01/05 00:52:19;;;;;;;1.40;1.30;;;6.70;99.90;;;;;;5076270;28;20448;-62
2022/01/05 00:54:46;;;;;;;1.30;1.20;;;6.70;99.90;;;;;;5076463;28;20453;-62
2022/01/05 00:57:13;;;;;;;2.13;1.40;;;6.70;99.90;;;;;;5076308;28;20471;-62
2022/01/05 00:59:42;;;;;;;1.97;1.40;;;6.60;99.90;;;;;;5076216;28;20814;-62
2022/01/05 01:02:09;;;;;;;1.47;1.37;;;6.50;99.90;;;;;;5076568;28;20506;-62
2022/01/05 01:04:36;;;;;;;1.30;1.20;;;6.50;99.90;;;;;;5076131;28;20445;-62
2022/01/05 01:07:04;;;;;;;1.60;1.30;;;6.60;99.90;;;;;;5076388;28;20551;-63
2022/01/05 01:09:32;;;;;;;1.20;1.10;;;6.70;99.90;;;;;;5076218;28;20459;-62
2022/01/05 01:11:59;;;;;;;2.30;1.17;;;6.60;99.90;;;;;;5076547;28;20468;-62
2022/01/05 01:14:26;;;;;;;1.37;1.23;;;6.70;99.90;;;;;;5075634;28;20488;-62
2022/01/05 01:16:55;;;;;;;1.33;1.20;;;6.70;99.90;;;;;;5076385;28;20444;-61
2022/01/05 01:19:22;;;;;;;1.50;1.33;;;6.70;99.90;;;;;;5076000;28;20943;-62
2022/01/05 01:21:49;;;;;;;1.40;1.30;;;6.40;99.90;;;;;;5075737;28;20490;-61
2022/01/05 01:24:16;;;;;;;1.30;1.20;;;6.50;99.90;;;;;;5076138;28;20539;-62
2022/01/05 01:26:43;;;;;;;1.43;1.33;;;6.40;99.90;;;;;;5076105;28;20531;-62
2022/01/05 01:29:11;;;;;;;1.40;1.30;;;6.50;99.90;;;;;;5075654;28;20459;-62
2022/01/05 01:31:38;;;;;;;1.30;1.20;;;6.60;99.90;;;;;;5075608;28;20503;-62
2022/01/05 01:34:06;;;;;;;1.20;1.10;;;6.70;99.90;;;;;;5075312;28;20486;-62
2022/01/05 01:36:33;;;;;;;1.50;1.30;;;6.70;99.90;;;;;;5075751;28;20542;-62
2022/01/05 01:39:00;;;;;;;1.20;1.10;;;6.70;99.90;;;;;;5075946;28;20527;-62
2022/01/05 01:41:28;;;;;;;1.63;1.10;;;6.70;99.90;;;;;;5075815;28;20476;-62
2022/01/05 01:43:55;;;;;;;1.30;1.20;;;6.70;99.90;;;;;;5075524;28;20433;-62
2022/01/05 01:46:23;;;;;;;1.30;1.20;;;6.70;99.90;;;;;;5075551;28;20956;-61
2022/01/05 01:48:50;;;;;;;1.30;1.20;;;6.60;99.90;;;;;;5075798;28;20452;-61
2022/01/05 01:51:18;;;;;;;1.17;1.07;;;6.60;99.90;;;;;;5075475;28;20575;-61
2022/01/05 01:53:46;;;;;;;1.10;1.00;;;6.60;99.90;;;;;;5075492;28;20503;-62
2022/01/05 01:56:15;;;;;;;1.40;1.30;;;6.60;99.90;;;;;;5075571;28;20448;-62
2022/01/05 01:58:44;;;;;;;1.20;1.10;;;6.50;99.90;;;;;;5075119;28;20962;-62
2022/01/05 02:01:11;;;;;;;1.30;1.20;;;6.60;99.90;;;;;;5075359;28;20484;-61
2022/01/05 02:03:38;;;;;;;1.33;1.23;;;6.70;99.90;;;;;;5075189;28;20448;-61
2022/01/05 02:06:05;;;;;;;1.30;1.20;;;6.70;99.90;;;;;;5075391;28;20452;-62
2022/01/05 02:08:35;;;;;;;1.33;1.17;;;6.60;99.90;;;;;;5075111;28;20532;-62
2022/01/05 02:11:04;;;;;;;2.63;1.57;;;6.70;99.90;;;;;;5075122;28;20476;-61
2022/01/05 02:13:31;;;;;;;1.20;1.10;;;6.60;99.90;;;;;;5074966;28;20868;-62
2022/01/05 02:15:58;;;;;;;1.30;1.20;;;6.60;99.90;;;;;;5075016;28;20410;-62
2022/01/05 02:21:13;;;;;;;1.20;1.10;;;6.70;99.90;;;;;;5074810;28;20444;-61
2022/01/05 02:23:41;;;;;;;1.40;1.30;;;6.70;99.90;;;;;;5075154;28;20429;-61
2022/01/05 02:26:11;;;;;;;1.30;1.20;;;6.70;99.90;;;;;;5074878;28;20531;-62
2022/01/05 02:28:38;;;;;;;1.63;1.20;;;6.80;99.90;;;;;;5074567;28;20449;-61
2022/01/05 02:31:05;;;;;;;1.30;1.20;;;6.60;99.90;;;;;;5074575;28;20470;-62
2022/01/05 02:33:33;;;;;;;2.40;1.10;;;6.70;99.90;;;;;;5074763;28;20835;-61
2022/01/05 02:36:00;;;;;;;1.40;1.30;;;6.80;99.90;;;;;;5074583;28;20817;-62
2022/01/05 02:38:29;;;;;;;1.37;1.27;;;6.70;99.90;;;;;;5074769;28;20480;-62
2022/01/05 02:40:56;;;;;;;1.47;1.37;;;6.80;99.90;;;;;;5074636;28;20571;-61
2022/01/05 02:43:23;;;;;;;1.43;1.10;;;6.70;99.90;;;;;;5074227;28;20473;-61
2022/01/05 02:45:51;;;;;;;4.23;1.53;;;6.80;99.90;;;;;;5073221;28;20953;-61
2022/01/05 02:48:18;;;;;;;1.37;1.27;;;6.80;99.90;;;;;;5074306;28;20458;-63
2022/01/05 02:50:45;;;;;;;1.50;1.40;;;6.80;99.90;;;;;;5074243;28;20460;-61
2022/01/05 02:53:12;;;;;;;1.37;1.20;;;6.70;99.90;;;;;;5074281;28;20484;-62
2022/01/05 02:55:41;;;;;;;1.70;1.60;;;6.70;99.90;;;;;;5074390;28;20445;-62
2022/01/05 02:58:08;;;;;;;3.00;1.40;;;6.70;99.90;;;;;;5074283;28;20444;-62
2022/01/05 03:00:35;;;;;;;1.30;1.20;;;6.70;99.90;;;;;;5074052;28;20468;-62
2022/01/05 03:03:02;;;;;;;1.70;1.60;;;6.50;99.90;;;;;;5073968;28;20945;-61
2022/01/05 03:05:30;;;;;;;1.40;1.30;;;6.50;99.90;;;;;;5074025;28;20811;-62
2022/01/05 03:07:57;;;;;;;1.50;1.40;;;6.60;99.90;;;;;;5073807;28;20433;-61
2022/01/05 03:10:24;;;;;;;1.60;1.50;;;6.50;99.90;;;;;;5074108;28;20496;-62
2022/01/05 03:12:52;;;;;;;1.20;1.10;;;6.50;99.90;;;;;;5073943;28;20527;-62
2022/01/05 03:15:20;;;;;;;1.40;1.30;;;6.50;99.90;;;;;;5073544;28;20562;-61
2022/01/05 03:17:47;;;;;;;2.07;1.33;;;6.50;99.90;;;;;;5074035;28;20444;-61
2022/01/05 03:20:17;;;;;;;1.30;1.20;;;6.50;99.90;;;;;;5073826;28;20464;-61
2022/01/05 03:22:45;;;;;;;1.90;1.70;;;6.50;99.90;;;;;;5073902;28;20429;-61
2022/01/05 03:25:16;;;;;;;1.47;1.37;;;6.30;99.90;;;;;;5073906;28;20498;-61
2022/01/05 03:27:44;;;;;;;1.43;1.30;;;6.40;99.90;;;;;;5073570;28;20907;-61
2022/01/05 03:30:15;;;;;;;1.47;1.37;;;6.40;99.90;;;;;;5073370;28;20504;-61
2022/01/05 03:33:01;;;;;;;1.57;1.47;;;6.40;99.90;;;;;;5073567;28;20416;-62
2022/01/05 03:35:29;;;;;;;1.50;1.40;;;6.40;99.90;;;;;;5073279;28;20413;-61
2022/01/05 03:37:57;;;;;;;1.53;1.20;;;6.40;99.90;;;;;;5073514;28;20425;-61
2022/01/05 03:40:25;;;;;;;1.30;1.20;;;6.40;99.90;;;;;;5073196;28;20460;-61
2022/01/05 03:42:52;;;;;;;1.53;1.43;;;6.50;99.90;;;;;;5073395;28;20445;-61
2022/01/05 03:45:21;;;;;;;2.03;1.10;;;6.50;99.90;;;;;;5073618;28;20440;-61
2022/01/05 03:47:48;;;;;;;1.40;1.30;;;6.50;99.90;;;;;;5073467;28;20440;-61
2022/01/05 03:50:15;;;;;;;1.40;1.27;;;6.60;99.90;;;;;;5073397;28;20466;-61
2022/01/05 03:52:42;;;;;;;1.20;1.10;;;6.50;99.90;;;;;;5073597;28;20451;-61
2022/01/05 03:55:10;;;;;;;1.30;1.20;;;6.50;99.90;;;;;;5073533;28;20490;-61
2022/01/05 03:57:37;;;;;;;1.13;1.03;;;6.50;99.90;;;;;;5073138;28;20452;-61
2022/01/05 04:00:07;;;;;;;1.70;1.40;;;6.40;99.90;;;;;;5073373;28;20448;-61
2022/01/05 04:02:35;;;;;;;1.40;1.20;;;6.50;99.90;;;;;;5073428;28;20444;-61
2022/01/05 04:05:02;;;;;;;1.53;1.23;;;6.40;99.90;;;;;;5073326;28;20466;-61
2022/01/05 04:07:30;;;;;;;1.30;1.20;;;6.50;99.90;;;;;;5072875;28;20448;-61
2022/01/05 04:09:57;;;;;;;1.20;1.10;;;6.40;99.90;;;;;;5072978;28;20547;-61
2022/01/05 04:12:24;;;;;;;1.30;1.20;;;6.20;99.90;;;;;;5073234;28;20451;-61
2022/01/05 04:14:51;;;;;;;1.30;1.20;;;6.40;99.90;;;;;;5072798;28;20499;-61
2022/01/05 04:17:18;;;;;;;1.23;1.13;;;6.40;99.90;;;;;;5073318;28;20444;-61
2022/01/05 04:19:47;;;;;;;1.50;1.40;;;6.40;99.90;;;;;;5073105;28;20445;-61
2022/01/05 04:22:15;;;;;;;1.20;1.10;;;6.50;99.90;;;;;;5073008;28;20479;-61
2022/01/05 04:24:42;;;;;;;1.20;1.10;;;6.50;99.90;;;;;;5073198;28;20445;-61
2022/01/05 04:27:09;;;;;;;1.20;1.10;;;6.40;99.90;;;;;;5072995;28;20470;-61
2022/01/05 04:29:36;;;;;;;2.30;1.60;;;6.40;99.90;;;;;;5072706;28;20784;-61
2022/01/05 04:32:04;;;;;;;1.20;1.10;;;6.40;99.90;;;;;;5072759;28;20496;-61
2022/01/05 04:34:31;;;;;;;2.13;1.30;;;6.40;99.90;;;;;;5072859;28;20491;-61
2022/01/05 04:36:59;;;;;;;1.40;1.30;;;6.40;99.90;;;;;;5072648;28;20456;-61
2022/01/05 04:39:26;;;;;;;1.30;1.20;;;6.40;99.90;;;;;;5073059;28;20539;-61
2022/01/05 04:41:53;;;;;;;1.20;1.10;;;6.40;99.90;;;;;;5072898;28;20468;-61
2022/01/05 04:44:20;;;;;;;2.90;1.20;;;6.30;99.90;;;;;;5072593;28;20444;-62
2022/01/05 04:46:47;;;;;;;1.30;1.20;;;6.30;99.90;;;;;;5073105;28;20646;-61
2022/01/05 04:49:15;;;;;;;1.20;1.10;;;6.30;99.90;;;;;;5072579;28;20938;-61
2022/01/05 04:51:42;;;;;;;1.37;1.27;;;6.30;99.90;;;;;;5072723;28;20464;-61
2022/01/05 04:54:10;;;;;;;1.40;1.30;;;6.20;99.90;;;;;;5072842;28;20485;-61
2022/01/05 04:56:38;;;;;;;1.30;1.20;;;6.10;99.90;;;;;;5072941;28;20565;-61
2022/01/05 04:59:05;;;;;;;1.40;1.30;;;6.10;99.90;;;;;;5072587;28;20432;-61
2022/01/05 05:01:32;;;;;;;1.40;1.30;;;6.10;99.90;;;;;;5072631;28;20563;-61
2022/01/05 05:03:59;;;;;;;1.30;1.20;;;5.90;99.90;;;;;;5072702;28;20445;-61
2022/01/05 05:06:27;;;;;;;1.83;1.10;;;5.80;99.90;;;;;;5072566;28;20468;-61
2022/01/05 05:08:54;;;;;;;1.60;1.33;;;6.00;99.90;;;;;;5074976;28;20455;-61
2022/01/05 05:11:23;;;;;;;1.20;1.10;;;6.00;99.90;;;;;;5076410;28;20515;-61
2022/01/05 05:13:50;;;;;;;5.90;1.23;;;6.20;99.90;;;;;;5075933;28;20484;-62
2022/01/05 05:16:17;;;;;;;1.20;1.10;;;6.30;99.90;;;;;;5076195;28;20865;-62
2022/01/05 05:18:44;;;;;;;1.40;1.30;;;6.10;99.90;;;;;;5075998;28;20532;-62
2022/01/05 05:21:11;;;;;;;1.50;1.40;;;6.10;99.90;;;;;;5075946;28;20563;-62
2022/01/05 05:23:38;;;;;;;1.53;1.43;;;6.00;99.90;;;;;;5076137;28;20812;-61
2022/01/05 05:26:06;;;;;;;1.87;1.70;;;5.20;99.90;;;;;;5075786;28;20452;-62
2022/01/05 05:28:34;;;;;;;1.60;1.50;;;4.90;99.90;;;;;;5075966;28;20477;-61
2022/01/05 05:31:01;;;;;;;1.60;1.50;;;4.50;99.90;;;;;;5075884;28;20468;-62
2022/01/05 05:33:28;;;;;;;1.57;1.47;;;4.30;99.90;;;;;;5076090;28;20466;-62
2022/01/05 05:35:55;;;;;;;2.03;1.93;;;4.00;99.90;;;;;;5075574;28;20488;-62
2022/01/05 05:38:22;;;;;;;1.83;1.73;;;3.60;99.90;;;;;;5075855;28;20453;-62
2022/01/05 05:40:50;;;;;;;1.80;1.70;;;3.60;99.90;;;;;;5075531;28;20468;-61
2022/01/05 05:43:17;;;;;;;2.00;1.90;;;3.50;99.90;;;;;;5075415;28;20939;-62
2022/01/05 05:45:45;;;;;;;1.80;1.70;;;3.50;99.90;;;;;;5075681;28;20447;-61
2022/01/05 05:48:12;;;;;;;2.03;1.83;;;3.30;99.90;;;;;;5075728;28;20452;-61
2022/01/05 05:50:39;;;;;;;1.80;1.70;;;3.00;99.90;;;;;;5075552;28;20468;-62
2022/01/05 05:53:07;;;;;;;1.53;1.43;;;2.90;99.90;;;;;;5075221;28;20821;-62
2022/01/05 05:55:34;;;;;;;1.90;1.80;;;3.00;99.90;;;;;;5075240;28;20480;-62
2022/01/05 05:58:02;;;;;;;2.10;1.90;;;3.10;99.90;;;;;;5075272;28;20451;-62
2022/01/05 06:00:29;;;;;;;2.23;1.87;;;3.10;99.90;;;;;;5075336;28;20793;-62
2022/01/05 06:02:58;;;;;;;2.53;2.33;;;3.20;99.90;;;;;;5075339;28;20444;-62
2022/01/05 06:05:25;;;;;;;2.30;2.13;;;3.50;99.90;;;;;;5075012;28;20441;-62
2022/01/05 06:07:52;;;;;;;2.30;2.10;;;3.30;99.90;;;;;;5075304;28;20504;-62
2022/01/05 06:10:20;;;;;;;2.60;2.07;;;3.30;99.90;;;;;;5074828;28;20468;-62
2022/01/05 06:12:47;;;;;;;2.30;2.07;;;3.50;99.90;;;;;;5074925;28;20445;-62
2022/01/05 06:15:14;;;;;;;2.40;2.13;;;3.50;99.90;;;;;;5074661;28;20488;-62
2022/01/05 06:17:41;;;;;;;2.17;2.00;;;3.30;99.90;;;;;;5074797;28;20966;-62
2022/01/05 06:20:11;;;;;;;2.30;2.10;;;3.40;99.90;;;;;;5074972;28;20440;-62
2022/01/05 06:22:40;;;;;;;2.40;2.20;;;3.50;99.90;;;;;;5074593;28;20428;-62
2022/01/05 06:25:09;;;;;;;2.00;1.90;;;3.50;99.90;;;;;;5074590;28;20448;-62
2022/01/05 06:27:36;;;;;;;2.53;2.33;;;3.60;99.90;;;;;;5074932;28;20455;-62
2022/01/05 06:30:07;;;;;;;2.10;1.97;;;3.70;99.90;;;;;;5074727;28;20487;-62
2022/01/05 06:32:35;;;;;;;2.20;2.10;;;3.80;99.90;;;;;;5074552;28;20464;-62
2022/01/05 06:35:03;;;;;;;2.23;2.07;;;4.00;99.90;;;;;;5074838;28;20495;-62
2022/01/05 06:37:31;;;;;;;4.67;2.13;;;4.10;99.90;;;;;;5075017;28;20456;-62
2022/01/05 06:39:58;;;;;;;2.43;2.23;;;3.80;99.90;;;;;;5074566;28;20444;-62
2022/01/05 06:42:26;;;;;;;2.27;2.07;;;3.90;99.90;;;;;;5074571;28;20888;-62
2022/01/05 06:44:53;;;;;;;2.13;2.03;;;4.00;99.90;;;;;;5074714;28;20440;-62
2022/01/05 06:47:20;;;;;;;3.80;2.10;;;4.10;99.90;;;;;;5074198;28;20543;-62
2022/01/05 06:49:47;;;;;;;2.23;2.13;;;4.20;99.90;;;;;;5074364;28;20448;-62
2022/01/05 06:52:14;;;;;;;2.20;2.00;;;4.00;99.90;;;;;;5074261;28;20999;-62
2022/01/05 06:54:43;;;;;;;1.90;1.80;;;4.20;99.90;;;;;;5074057;28;20580;-62
2022/01/05 06:57:11;;;;;;;2.27;2.07;;;4.10;99.90;;;;;;5073923;28;20455;-62
2022/01/05 06:59:39;;;;;;;2.23;2.03;;;4.10;99.90;;;;;;5074408;28;20455;-62
2022/01/05 07:02:06;;;;;;;2.17;2.00;;;4.10;99.90;;;;;;5073989;28;20522;-62
2022/01/05 07:04:34;;;;;;;2.30;2.10;;;4.00;99.90;;;;;;5073934;28;20515;-62
2022/01/05 07:07:01;;;;;;;2.50;2.30;;;3.80;99.90;;;;;;5074233;28;20931;-62
2022/01/05 07:09:28;;;;;;;1.80;1.70;;;3.80;99.90;;;;;;5074004;28;20449;-62
2022/01/05 07:11:57;;;;;;;2.90;1.90;;;3.80;99.90;;;;;;5073560;28;20547;-62
2022/01/05 07:14:24;;;;;;;4.20;2.70;;;3.80;99.90;;;;;;5073559;28;20480;-62
2022/01/05 07:16:51;;;;;;;2.37;2.00;;;3.70;99.90;;;;;;5073683;28;20448;-62
2022/01/05 07:19:19;;;;;;;2.10;1.90;;;3.70;99.90;;;;;;5073909;28;20521;-62
2022/01/05 07:21:47;;;;;;;2.43;2.23;;;3.70;99.90;;;;;;5073519;28;20978;-62
2022/01/05 07:24:17;;;;;;;3.03;2.20;;;3.70;99.90;;;;;;5074123;28;20483;-62
2022/01/05 07:26:45;;;;;;;2.17;2.07;;;3.60;99.90;;;;;;5073308;28;20588;-62
2022/01/05 07:29:15;;;;;;;2.07;1.97;;;3.60;99.90;;;;;;5073369;28;20429;-62
2022/01/05 07:31:43;;;;;;;2.20;1.93;;;3.80;99.90;;;;;;5072801;28;20559;-63
2022/01/05 07:34:10;;;;;;;2.13;2.03;;;3.70;99.90;;;;;;5073415;28;20935;-63
2022/01/05 07:36:38;;;;;;;1.90;1.80;;;3.70;99.90;;;;;;5073303;28;20550;-63
2022/01/05 07:39:06;;;;;;;2.70;2.30;;;3.60;99.90;;;;;;5073567;28;20444;-63
2022/01/05 07:41:34;;;;;;;3.50;1.80;;;3.60;99.90;;;;;;5073437;28;20465;-62
2022/01/05 07:44:01;;;;;;;3.60;3.00;;;3.50;99.90;;;;;;5073517;28;20463;-62
2022/01/05 07:46:30;;;;;;;2.70;2.50;;;3.40;99.90;;;;;;5073292;28;20483;-62
2022/01/05 07:48:57;;;;;;;5.00;2.67;;;3.40;99.90;;;;;;5073236;28;20444;-62
2022/01/05 07:51:24;;;;;;;3.23;2.47;;;3.40;99.90;;;;;;5072954;28;20470;-62
2022/01/05 07:53:51;;;;;;;2.60;2.17;;;3.40;99.90;;;;;;5072754;28;20525;-63
2022/01/05 07:56:19;;;;;;;4.20;2.83;;;3.30;99.90;;;;;;5073230;28;20808;-63
2022/01/05 07:58:47;;;;;;;2.40;2.20;;;3.20;99.90;;;;;;5073056;28;20547;-62
2022/01/05 08:01:18;;;;;;;2.33;2.23;;;3.30;99.90;;;;;;5073275;28;20519;-62
2022/01/05 08:03:47;;;;;;;8.93;2.73;;;3.30;99.90;;;;;;5073475;28;20429;-62
2022/01/05 08:06:14;;;;;;;3.30;3.10;;;3.30;99.90;;;;;;5073153;28;20470;-66
2022/01/05 08:08:43;;;;;;;3.13;2.80;;;3.20;99.90;;;;;;5073226;28;20547;-65
2022/01/05 08:11:10;;;;;;;4.73;3.07;;;3.30;99.90;;;;;;5072750;28;20966;-65
2022/01/05 08:13:38;;;;;;;3.27;2.97;;;3.20;99.90;;;;;;5072966;28;20454;-65
2022/01/05 08:16:05;;;;;;;4.17;3.50;;;3.20;99.90;;;;;;5073100;28;20841;-65
2022/01/05 08:18:33;;;;;;;3.20;3.00;;;3.20;99.90;;;;;;5072936;28;20531;-65
2022/01/05 08:21:01;;;;;;;3.50;3.07;;;3.20;99.90;;;;;;5073006;28;20468;-64
2022/01/05 08:23:29;;;;;;;10.20;3.47;;;3.30;99.90;;;;;;5072794;28;20535;-65
2022/01/05 08:25:56;;;;;;;3.20;3.00;;;3.30;99.90;;;;;;5072798;28;20440;-64
2022/01/05 08:28:23;;;;;;;2.93;2.73;;;3.30;99.90;;;;;;5072796;28;20451;-64
2022/01/05 08:30:50;;;;;;;3.97;3.27;;;3.20;99.90;;;;;;5072583;28;21114;-64
2022/01/05 08:33:18;;;;;;;3.20;3.00;;;3.30;99.90;;;;;;5072814;28;20833;-64
2022/01/05 08:35:47;;;;;;;3.67;3.37;;;3.20;99.90;;;;;;5073143;28;20484;-65
2022/01/05 08:38:16;;;;;;;3.67;2.70;;;3.20;99.90;;;;;;5072719;28;20505;-64
2022/01/05 08:40:45;;;;;;;4.77;3.20;;;3.30;99.90;;;;;;5072491;28;21032;-64
2022/01/05 08:43:14;;;;;;;6.73;2.83;;;3.20;99.90;;;;;;5074016;28;20483;-63
2022/01/05 08:45:42;;;;;;;2.47;2.37;;;3.30;99.90;;;;;;5076503;28;20446;-63
2022/01/05 08:48:10;;;;;;;3.33;3.03;;;3.40;99.90;;;;;;5076243;28;20802;-64
2022/01/05 08:50:38;;;;;;;2.90;2.70;;;3.40;99.90;;;;;;5076716;28;20476;-63
2022/01/05 08:53:07;;;;;;;3.33;3.03;;;3.10;99.90;;;;;;5076683;28;20483;-63
2022/01/05 08:55:38;;;;;;;8.73;3.50;;;3.10;99.90;;;;;;5076519;28;20480;-63
2022/01/05 08:58:06;;;;;;;6.33;3.30;;;3.10;99.90;;;;;;5076529;28;20562;-63
2022/01/05 09:00:35;;;;;;;3.60;2.70;;;3.20;99.90;;;;;;5076472;28;20834;-64
2022/01/05 09:03:02;;;;;;;5.50;3.43;;;3.10;99.90;;;;;;5076064;28;20448;-63
2022/01/05 09:05:30;;;;;;;3.07;2.87;;;3.00;99.90;;;;;;5075999;28;20938;-64
2022/01/05 09:07:57;;;;;;;6.27;3.40;;;3.10;99.90;;;;;;5076141;28;20445;-63
2022/01/05 09:10:25;;;;;;;2.80;2.37;;;3.00;99.90;;;;;;5076115;28;20472;-62
2022/01/05 09:12:56;;;;;;;3.67;2.90;;;3.00;99.90;;;;;;5075973;28;20926;-62
2022/01/05 09:15:23;;;;;;;4.73;2.90;;;3.20;99.90;;;;;;5074820;28;20492;-63
2022/01/05 09:17:50;;;;;;;5.13;3.17;;;3.40;99.90;;;;;;5076142;28;20451;-61
2022/01/05 09:20:17;;;;;;;3.87;3.00;;;3.30;99.90;;;;;;5075987;28;20548;-61
2022/01/05 09:22:45;;;;;;;4.20;2.63;;;3.60;99.90;;;;;;5075760;28;20480;-62
2022/01/05 09:25:14;;;;;;;3.70;2.87;;;3.70;99.90;;;;;;5075673;28;20440;-61
2022/01/05 09:27:42;;;;;;;3.83;2.47;;;3.60;99.90;;;;;;5075808;28;20463;-61
2022/01/05 09:30:13;;;;;;;3.20;2.90;;;3.60;99.90;;;;;;5075823;28;20517;-61
2022/01/05 09:32:41;;;;;;;4.20;2.77;;;3.80;99.90;;;;;;5076036;28;20424;-61
2022/01/05 09:35:11;;;;;;;6.00;3.13;;;3.90;99.90;;;;;;5075708;28;20511;-61
2022/01/05 09:37:50;;;;;;;3.30;2.73;;;3.80;99.90;;;;;;5075940;28;20795;-61
2022/01/05 09:43:04;;;;;;;6.43;2.63;;;3.70;99.90;;;;;;5075439;28;20435;-61
2022/01/05 09:45:34;;;;;;;5.83;3.03;;;3.60;99.90;;;;;;5075809;28;20563;-61
2022/01/05 09:48:24;;;;;;;3.07;2.87;;;3.50;99.90;;;;;;5075159;28;20465;-61
2022/01/05 09:50:58;;;;;;;5.27;2.77;;;3.50;99.90;;;;;;5075280;28;20559;-61
2022/01/05 09:53:26;;;;;;;2.87;2.63;;;3.70;99.90;;;;;;5075077;28;20429;-62
2022/01/05 09:55:53;;;;;;;7.53;2.63;;;3.80;99.90;;;;;;5075303;28;20843;-61
2022/01/05 09:58:22;;;;;;;4.00;3.20;;;3.60;99.90;;;;;;5075049;28;21018;-63
2022/01/05 10:00:51;;;;;;;3.53;2.33;;;3.70;99.90;;;;;;5074916;28;20472;-63
2022/01/05 10:03:18;;;;;;;5.60;3.10;;;3.60;99.90;;;;;;5075236;28;20448;-63
2022/01/05 10:05:46;;;;;;;5.87;3.63;;;3.60;99.90;;;;;;5075023;28;20538;-63
2022/01/05 10:08:13;;;;;;;2.77;2.57;;;3.60;99.90;;;;;;5075287;28;20512;-63
2022/01/05 10:10:42;;;;;;;3.40;2.90;;;3.70;99.90;;;;;;5074985;28;20555;-63
2022/01/05 10:13:09;;;;;;;9.20;3.20;;;3.50;99.90;;;;;;5074918;28;20445;-63
2022/01/05 10:15:37;;;;;;;4.67;2.20;;;3.80;99.90;;;;;;5074702;28;20574;-63
2022/01/05 10:18:13;;;;;;;4.47;2.57;;;3.70;99.90;;;;;;5075081;28;20451;-62
2022/01/05 10:21:00;;;;;;;3.20;2.87;;;3.50;99.90;;;;;;5074593;28;20464;-61
2022/01/05 10:23:38;;;;;;;4.07;2.37;;;3.20;99.90;;;;;;5074631;28;20532;-64
2022/01/05 10:26:20;;;;;;;5.10;2.67;;;3.10;99.90;;;;;;5074510;28;20930;-63
2022/01/05 10:28:47;;;;;;;6.80;2.90;;;3.00;99.90;;;;;;5074784;28;20548;-64
2022/01/05 10:31:15;;;;;;;4.00;2.37;;;3.10;99.90;;;;;;5074806;28;20468;-62
2022/01/05 10:33:43;;;;;;;6.57;2.83;;;3.20;99.90;;;;;;5074652;28;20484;-62
2022/01/05 10:36:11;;;;;;;7.57;2.67;;;3.10;99.90;;;;;;5074271;28;20591;-65
2022/01/05 10:38:41;;;;;;;2.27;1.97;;;3.20;99.90;;;;;;5074291;28;20452;-62
2022/01/05 10:41:19;;;;;;;4.33;2.80;;;3.40;99.90;;;;;;5074281;28;20465;-62
2022/01/05 10:44:12;;;;;;;4.87;2.60;;;3.90;99.90;;;;;;5074051;28;20933;-63
2022/01/05 10:46:42;;;;;;;4.47;2.23;;;4.80;99.90;;;;;;5074084;28;20456;-63
2022/01/05 10:49:11;;;;;;;5.73;2.47;;;;;;;;;;5074450;28;20444;-62
2022/01/05 10:51:38;;;;;;;4.93;2.43;;;5.10;99.90;;;;;;5074378;28;20920;-62
2022/01/05 10:54:14;;;;;;;5.67;3.03;;;5.00;99.90;;;;;;5073849;28;20444;-63
2022/01/05 10:56:46;;;;;;;3.10;2.67;;;5.40;99.90;;;;;;5073717;28;21033;-62
2022/01/05 10:59:15;;;;;;;4.00;2.30;;;5.00;99.90;;;;;;5074002;28;20445;-63
2022/01/05 11:01:43;;;;;;;4.37;2.83;;;4.80;99.90;;;;;;5074040;28;20464;-61
2022/01/05 11:04:20;;;;;;;3.93;2.97;;;4.50;99.90;;;;;;5074129;28;20506;-62
2022/01/05 11:06:58;;;;;;;6.77;2.77;;;4.30;99.90;;;;;;5072694;28;20452;-61
2022/01/05 11:09:26;;;;;;;5.03;2.60;;;4.20;99.90;;;;;;5073574;28;20455;-61
2022/01/05 11:11:54;;;;;;;3.50;2.63;;;3.90;99.90;;;;;;5073430;28;20469;-61
2022/01/05 11:14:29;;;;;;;6.00;3.20;;;3.90;99.90;;;;;;5073598;28;20486;-62
2022/01/05 11:16:57;;;;;;;8.70;2.77;;;3.90;99.90;;;;;;5073827;28;20464;-62
2022/01/05 11:19:27;;;;;;;4.20;2.40;;;4.30;99.90;;;;;;5073635;28;20433;-62
2022/01/05 11:22:03;;;;;;;3.07;2.40;;;4.30;99.90;;;;;;5073780;28;20472;-62
2022/01/05 11:24:32;;;;;;;3.20;2.03;;;4.20;99.90;;;;;;5074005;28;20494;-63
2022/01/05 11:26:59;;;;;;;7.03;3.13;;;4.20;99.90;;;;;;5073181;28;20939;-63
2022/01/05 11:29:26;;;;;;;3.30;2.43;;;5.10;99.90;;;;;;5073230;28;20923;-62
2022/01/05 11:31:56;;;;;;;7.90;3.27;;;;;;;;;;5073332;28;20468;-63
2022/01/05 11:34:27;;;;;;;6.10;3.20;;;6.50;99.90;;;;;;5073419;28;20444;-63
2022/01/05 11:36:54;;;;;;;4.70;2.50;;;6.00;99.90;;;;;;5073343;28;21061;-63
2022/01/05 11:39:21;;;;;;;4.23;2.47;;;5.70;99.80;;;;;;5073205;28;20535;-63
2022/01/05 11:41:51;;;;;;;3.30;2.30;;;5.20;99.90;;;;;;5073431;28;20551;-64
2022/01/05 11:44:19;;;;;;;4.47;2.80;;;5.10;99.90;;;;;;5073319;28;20451;-63
2022/01/05 11:46:47;;;;;;;4.27;2.53;;;5.70;99.90;;;;;;5072981;28;20454;-63
2022/01/05 11:49:18;;;;;;;4.30;3.07;;;6.50;99.90;;;;;;5072967;28;20543;-62
2022/01/05 11:51:59;;;;;;;3.97;2.27;;;6.90;99.90;;;;;;5073024;28;20479;-63
2022/01/05 11:54:28;;;;;;;2.60;2.00;;;6.90;98.70;;;;;;5073099;28;20436;-61
2022/01/05 11:56:57;;;;;;;6.93;2.70;;;6.00;99.60;;;;;;5072775;28;20535;-61
2022/01/05 11:59:35;;;;;;;5.10;2.87;;;6.00;99.90;;;;;;5072703;28;20444;-62
2022/01/05 12:02:06;;;;;;;6.17;2.80;;;5.50;98.60;;;;;;5073181;28;20559;-61
2022/01/05 12:05:08;;;;;;;4.20;2.90;;;5.10;99.60;;;;;;5072976;28;20516;-61
2022/01/05 12:07:38;;;;;;;6.37;2.30;;;5.00;99.90;;;;;;5071597;28;20455;-62
2022/01/05 12:10:16;;;;;;;5.60;2.60;;;5.00;99.90;;;;;;5073003;28;20512;-63
2022/01/05 12:12:58;;;;;;;7.00;2.83;;;5.30;99.90;;;;;;5073006;28;20458;-65
2022/01/05 12:15:45;;;;;;;4.33;2.53;;;5.20;99.90;;;;;;5072534;28;20992;-65
2022/01/05 12:18:13;;;;;;;5.03;2.60;;;5.00;99.90;;;;;;5076202;28;20868;-64
2022/01/05 12:20:41;;;;;;;7.83;2.50;;;5.10;99.90;;;;;;5076902;28;20554;-64
2022/01/05 12:23:17;;;;;;;3.70;2.27;;;4.70;99.90;;;;;;5077332;28;20539;-65
2022/01/05 12:26:18;;;;;;;3.00;2.47;;;4.60;99.60;;;;;;5077234;28;20456;-65
2022/01/05 12:28:57;;;;;;;7.47;2.40;;;4.80;99.90;;;;;;5076987;28;20925;-64
2022/01/05 12:31:54;;;;;;;5.03;2.40;;;4.60;99.90;;;;;;5077187;28;20464;-64
2022/01/05 12:34:55;;;;;;;4.13;2.37;;;4.80;99.90;;;;;;5076886;28;20448;-63
2022/01/05 12:37:39;;;;;;;4.40;2.80;;;4.80;99.70;;;;;;5077083;28;20686;-63
2022/01/05 12:40:24;;;;;;;7.13;2.70;;;5.20;99.90;;;;;;5076572;28;20448;-64
2022/01/05 12:43:35;;;;;;;4.43;2.60;;;5.30;99.40;;;;;;5076486;28;20511;-64
2022/01/05 12:46:05;;;;;;;3.37;2.50;;;5.30;98.90;;;;;;5076605;28;20946;-61
2022/01/05 12:49:03;;;;;;;6.93;2.30;;;5.40;98.20;;;;;;5076371;28;20492;-63
2022/01/05 12:51:53;;;;;;;5.60;2.87;;;5.40;98.70;;;;;;5076386;28;20470;-64
2022/01/05 12:54:23;;;;;;;4.00;2.90;;;5.30;98.70;;;;;;5076673;28;20439;-64
2022/01/05 12:56:55;;;;;;;9.20;4.17;;;5.20;98.90;;;;;;5075992;28;20533;-64
2022/01/05 12:59:27;;;;;;;5.10;2.20;;;5.10;99.30;;;;;;5076180;28;20432;-64
2022/01/05 13:01:57;;;;;;;3.07;2.10;;;4.70;98.40;;;;;;5076086;28;20467;-64
2022/01/05 13:04:26;;;;;;;8.40;3.30;;;4.60;98.70;;;;;;5076501;28;20803;-64
2022/01/05 13:06:57;;;;;;;3.70;2.33;;;4.30;98.90;;;;;;5076409;28;20452;-64
2022/01/05 13:09:28;;;;;;;2.73;2.47;;;4.40;99.30;;;;;;5076443;28;20451;-64
2022/01/05 13:11:59;;;;;;;5.43;2.70;;;4.60;99.80;;;;;;5076066;28;20468;-63
2022/01/05 13:14:30;;;;;;;6.20;2.50;;;4.70;99.30;;;;;;5075861;28;20575;-64